Wing, Alabama
Current Conditions -  °F | °C
As of 5:58 PM on Friday 28 Nov 2014 (Local Time) from K0J4 Reporting Station
Clear Clear  
Wind Chill:   Ceiling: Unl
Heat Index:   Visibility: 10mi
Dew Point:   Wind: 0mph
Humidity: 74%   Direction: NA
Pressure: 30.32"   Gusts: NA
Location:  31.03°N, 86.61°W
Report Text: K0J4 282358Z AUTO 00000KT 10SM CLR 06/02 A3032 RMK AO2 SLP268 T00610017 10150 20056 55002 $
Loading
Personal Weather Stations






























Interactive Weather Map New forecast layout! Learn more

10-Day Weather Forecast

Advertisements
Track Severe Weather on mobile